sensor_id;sensor_type;location;lat;lon;timestamp;P1;durP1;ratioP1;P2;durP2;ratioP2
27740;SDS011;15134;48.768;9.184;2023-07-16T00:00:35;1033.07;;;933.97;;
27740;SDS011;15134;48.768;9.184;2023-07-16T00:03:02;1031.22;;;932.13;;
27740;SDS011;15134;48.768;9.184;2023-07-16T00:05:28;1039.13;;;939.88;;
27740;SDS011;15134;48.768;9.184;2023-07-16T00:07:53;1035.30;;;936.10;;
27740;SDS011;15134;48.768;9.184;2023-07-16T00:10:19;1030.75;;;931.80;;
27740;SDS011;15134;48.768;9.184;2023-07-16T00:12:45;1034.60;;;935.60;;
27740;SDS011;15134;48.768;9.184;2023-07-16T00:15:10;1031.80;;;932.67;;
27740;SDS011;15134;48.768;9.184;2023-07-16T00:17:36;1034.13;;;935.00;;
27740;SDS011;15134;48.768;9.184;2023-07-16T00:20:02;1029.97;;;931.10;;
27740;SDS011;15134;48.768;9.184;2023-07-16T00:22:29;1036.78;;;937.40;;
27740;SDS011;15134;48.768;9.184;2023-07-16T00:24:55;1035.80;;;936.70;;
27740;SDS011;15134;48.768;9.184;2023-07-16T00:27:20;1040.80;;;941.50;;
27740;SDS011;15134;48.768;9.184;2023-07-16T00:29:46;1033.20;;;934.07;;
27740;SDS011;15134;48.768;9.184;2023-07-16T00:32:12;1034.97;;;936.05;;
27740;SDS011;15134;48.768;9.184;2023-07-16T00:34:37;1036.50;;;937.17;;
27740;SDS011;15134;48.768;9.184;2023-07-16T00:37:03;1035.35;;;936.28;;
27740;SDS011;15134;48.768;9.184;2023-07-16T00:39:29;1034.65;;;935.58;;
27740;SDS011;15134;48.768;9.184;2023-07-16T00:41:55;1034.53;;;935.50;;
27740;SDS011;15134;48.768;9.184;2023-07-16T00:44:22;1040.00;;;940.60;;
27740;SDS011;15134;48.768;9.184;2023-07-16T00:46:48;1037.67;;;938.43;;
27740;SDS011;15134;48.768;9.184;2023-07-16T00:49:14;1036.15;;;937.08;;
27740;SDS011;15134;48.768;9.184;2023-07-16T00:51:40;1037.50;;;938.27;;
27740;SDS011;15134;48.768;9.184;2023-07-16T00:54:06;1037.50;;;938.22;;
27740;SDS011;15134;48.768;9.184;2023-07-16T00:56:32;1034.27;;;935.10;;
27740;SDS011;15134;48.768;9.184;2023-07-16T00:58:58;1035.00;;;935.88;;
27740;SDS011;15134;48.768;9.184;2023-07-16T01:01:23;1031.17;;;932.07;;
27740;SDS011;15134;48.768;9.184;2023-07-16T01:03:50;1028.60;;;929.67;;
27740;SDS011;15134;48.768;9.184;2023-07-16T01:06:18;1026.23;;;927.43;;
27740;SDS011;15134;48.768;9.184;2023-07-16T01:11:35;1035.95;;;936.55;;
27740;SDS011;15134;48.768;9.184;2023-07-16T01:14:02;1030.05;;;931.05;;
27740;SDS011;15134;48.768;9.184;2023-07-16T01:16:30;1029.85;;;930.83;;
27740;SDS011;15134;48.768;9.184;2023-07-16T01:18:57;1030.25;;;931.42;;
27740;SDS011;15134;48.768;9.184;2023-07-16T01:21:23;1027.40;;;928.65;;
27740;SDS011;15134;48.768;9.184;2023-07-16T01:29:49;1034.63;;;935.60;;
27740;SDS011;15134;48.768;9.184;2023-07-16T01:32:19;1023.60;;;925.17;;
27740;SDS011;15134;48.768;9.184;2023-07-16T01:34:47;1032.13;;;933.10;;
27740;SDS011;15134;48.768;9.184;2023-07-16T01:37:13;1023.88;;;925.30;;
27740;SDS011;15134;48.768;9.184;2023-07-16T01:39:39;1022.50;;;924.20;;
27740;SDS011;15134;48.768;9.184;2023-07-16T01:42:05;1024.90;;;926.30;;
27740;SDS011;15134;48.768;9.184;2023-07-16T01:44:31;1025.75;;;927.17;;
27740;SDS011;15134;48.768;9.184;2023-07-16T01:47:09;1026.53;;;927.67;;
27740;SDS011;15134;48.768;9.184;2023-07-16T01:49:47;1019.17;;;920.78;;
27740;SDS011;15134;48.768;9.184;2023-07-16T01:52:13;1022.87;;;924.50;;
27740;SDS011;15134;48.768;9.184;2023-07-16T01:54:39;1016.78;;;918.47;;
27740;SDS011;15134;48.768;9.184;2023-07-16T01:57:04;1019.30;;;920.57;;
27740;SDS011;15134;48.768;9.184;2023-07-16T01:59:30;1020.88;;;922.38;;
27740;SDS011;15134;48.768;9.184;2023-07-16T02:01:56;1015.00;;;916.80;;
27740;SDS011;15134;48.768;9.184;2023-07-16T02:04:22;1018.60;;;920.10;;
27740;SDS011;15134;48.768;9.184;2023-07-16T02:06:48;1024.07;;;925.47;;
27740;SDS011;15134;48.768;9.184;2023-07-16T02:09:18;1016.53;;;918.08;;
27740;SDS011;15134;48.768;9.184;2023-07-16T02:11:45;1023.72;;;925.08;;
27740;SDS011;15134;48.768;9.184;2023-07-16T02:14:10;1025.17;;;926.20;;
27740;SDS011;15134;48.768;9.184;2023-07-16T02:16:36;1013.45;;;915.25;;
27740;SDS011;15134;48.768;9.184;2023-07-16T02:19:02;1024.97;;;926.10;;
27740;SDS011;15134;48.768;9.184;2023-07-16T02:21:28;1018.10;;;919.70;;
27740;SDS011;15134;48.768;9.184;2023-07-16T02:23:53;1017.45;;;918.88;;
27740;SDS011;15134;48.768;9.184;2023-07-16T02:26:19;1022.00;;;923.37;;
27740;SDS011;15134;48.768;9.184;2023-07-16T02:28:45;1018.53;;;919.90;;
27740;SDS011;15134;48.768;9.184;2023-07-16T02:31:10;1016.60;;;918.13;;
27740;SDS011;15134;48.768;9.184;2023-07-16T02:33:39;1012.92;;;914.65;;
27740;SDS011;15134;48.768;9.184;2023-07-16T02:36:07;1008.30;;;910.30;;
27740;SDS011;15134;48.768;9.184;2023-07-16T02:38:33;1012.85;;;914.70;;
27740;SDS011;15134;48.768;9.184;2023-07-16T02:40:58;1018.38;;;919.85;;
27740;SDS011;15134;48.768;9.184;2023-07-16T02:43:24;1012.07;;;913.87;;
27740;SDS011;15134;48.768;9.184;2023-07-16T02:45:50;1015.28;;;916.88;;
27740;SDS011;15134;48.768;9.184;2023-07-16T02:48:16;1005.63;;;907.67;;
27740;SDS011;15134;48.768;9.184;2023-07-16T02:50:41;1008.63;;;910.30;;
27740;SDS011;15134;48.768;9.184;2023-07-16T02:53:07;1004.70;;;906.75;;
27740;SDS011;15134;48.768;9.184;2023-07-16T02:55:36;1010.05;;;911.53;;
27740;SDS011;15134;48.768;9.184;2023-07-16T02:58:02;1006.28;;;908.10;;
27740;SDS011;15134;48.768;9.184;2023-07-16T03:00:32;1006.23;;;908.10;;
27740;SDS011;15134;48.768;9.184;2023-07-16T03:02:59;1001.10;;;903.28;;
27740;SDS011;15134;48.768;9.184;2023-07-16T03:05:28;1000.78;;;902.90;;
27740;SDS011;15134;48.768;9.184;2023-07-16T03:07:56;998.45;;;900.45;;
27740;SDS011;15134;48.768;9.184;2023-07-16T03:10:22;1000.55;;;902.60;;
27740;SDS011;15134;48.768;9.184;2023-07-16T03:12:48;993.70;;;896.10;;
27740;SDS011;15134;48.768;9.184;2023-07-16T03:15:14;997.25;;;899.35;;
27740;SDS011;15134;48.768;9.184;2023-07-16T03:17:39;989.97;;;892.40;;
27740;SDS011;15134;48.768;9.184;2023-07-16T03:20:05;992.83;;;895.22;;
27740;SDS011;15134;48.768;9.184;2023-07-16T03:22:32;991.05;;;893.65;;
27740;SDS011;15134;48.768;9.184;2023-07-16T03:24:58;987.63;;;890.15;;
27740;SDS011;15134;48.768;9.184;2023-07-16T03:27:24;984.17;;;886.73;;
27740;SDS011;15134;48.768;9.184;2023-07-16T03:29:55;994.22;;;896.22;;
27740;SDS011;15134;48.768;9.184;2023-07-16T03:32:21;988.05;;;890.42;;
27740;SDS011;15134;48.768;9.184;2023-07-16T03:34:47;983.80;;;886.25;;
27740;SDS011;15134;48.768;9.184;2023-07-16T03:37:12;984.77;;;887.50;;
27740;SDS011;15134;48.768;9.184;2023-07-16T03:39:38;982.70;;;885.30;;
27740;SDS011;15134;48.768;9.184;2023-07-16T03:42:04;986.53;;;888.83;;
27740;SDS011;15134;48.768;9.184;2023-07-16T03:44:30;988.13;;;890.42;;
27740;SDS011;15134;48.768;9.184;2023-07-16T03:46:57;982.35;;;885.03;;
27740;SDS011;15134;48.768;9.184;2023-07-16T03:49:23;986.40;;;888.83;;
27740;SDS011;15134;48.768;9.184;2023-07-16T03:51:49;985.17;;;887.78;;
27740;SDS011;15134;48.768;9.184;2023-07-16T03:54:14;989.17;;;891.58;;
27740;SDS011;15134;48.768;9.184;2023-07-16T03:56:42;981.15;;;884.00;;
27740;SDS011;15134;48.768;9.184;2023-07-16T03:59:07;978.72;;;881.75;;
27740;SDS011;15134;48.768;9.184;2023-07-16T04:01:33;977.67;;;880.50;;
27740;SDS011;15134;48.768;9.184;2023-07-16T04:03:59;978.47;;;881.42;;
27740;SDS011;15134;48.768;9.184;2023-07-16T04:06:25;980.28;;;883.05;;
27740;SDS011;15134;48.768;9.184;2023-07-16T04:08:51;984.72;;;887.30;;
27740;SDS011;15134;48.768;9.184;2023-07-16T04:11:17;980.83;;;883.60;;
27740;SDS011;15134;48.768;9.184;2023-07-16T04:13:43;981.93;;;884.70;;
27740;SDS011;15134;48.768;9.184;2023-07-16T04:16:08;983.20;;;886.00;;
27740;SDS011;15134;48.768;9.184;2023-07-16T04:18:34;978.63;;;881.63;;
27740;SDS011;15134;48.768;9.184;2023-07-16T04:21:00;983.88;;;886.80;;
27740;SDS011;15134;48.768;9.184;2023-07-16T04:23:26;978.67;;;881.75;;
27740;SDS011;15134;48.768;9.184;2023-07-16T04:25:52;987.83;;;890.37;;
27740;SDS011;15134;48.768;9.184;2023-07-16T04:28:20;987.60;;;890.20;;
27740;SDS011;15134;48.768;9.184;2023-07-16T04:30:45;982.22;;;885.15;;
27740;SDS011;15134;48.768;9.184;2023-07-16T04:33:11;982.17;;;885.33;;
27740;SDS011;15134;48.768;9.184;2023-07-16T04:35:37;981.93;;;884.83;;
27740;SDS011;15134;48.768;9.184;2023-07-16T04:38:03;982.65;;;885.58;;
27740;SDS011;15134;48.768;9.184;2023-07-16T04:40:29;977.97;;;881.17;;
27740;SDS011;15134;48.768;9.184;2023-07-16T04:42:55;985.42;;;888.05;;
27740;SDS011;15134;48.768;9.184;2023-07-16T04:45:21;981.63;;;884.47;;
27740;SDS011;15134;48.768;9.184;2023-07-16T04:47:47;985.95;;;888.58;;
27740;SDS011;15134;48.768;9.184;2023-07-16T04:50:13;983.05;;;885.80;;
27740;SDS011;15134;48.768;9.184;2023-07-16T04:52:38;984.53;;;887.23;;
27740;SDS011;15134;48.768;9.184;2023-07-16T04:55:04;985.10;;;887.90;;
27740;SDS011;15134;48.768;9.184;2023-07-16T04:57:32;985.75;;;888.55;;
27740;SDS011;15134;48.768;9.184;2023-07-16T04:59:58;988.65;;;891.40;;
27740;SDS011;15134;48.768;9.184;2023-07-16T05:02:24;992.70;;;894.80;;
27740;SDS011;15134;48.768;9.184;2023-07-16T05:04:50;980.80;;;883.88;;
27740;SDS011;15134;48.768;9.184;2023-07-16T05:07:15;984.57;;;887.37;;
27740;SDS011;15134;48.768;9.184;2023-07-16T05:09:42;989.15;;;891.72;;
27740;SDS011;15134;48.768;9.184;2023-07-16T05:12:08;990.63;;;892.60;;
27740;SDS011;15134;48.768;9.184;2023-07-16T05:14:42;988.53;;;890.67;;
27740;SDS011;15134;48.768;9.184;2023-07-16T05:17:12;991.65;;;893.47;;
27740;SDS011;15134;48.768;9.184;2023-07-16T05:19:38;985.83;;;888.45;;
27740;SDS011;15134;48.768;9.184;2023-07-16T05:22:04;985.03;;;887.07;;
27740;SDS011;15134;48.768;9.184;2023-07-16T05:24:31;985.20;;;887.67;;
27740;SDS011;15134;48.768;9.184;2023-07-16T05:26:57;988.65;;;890.88;;
27740;SDS011;15134;48.768;9.184;2023-07-16T05:29:22;989.10;;;891.37;;
27740;SDS011;15134;48.768;9.184;2023-07-16T05:31:48;993.28;;;895.35;;
27740;SDS011;15134;48.768;9.184;2023-07-16T05:34:14;991.13;;;893.67;;
27740;SDS011;15134;48.768;9.184;2023-07-16T05:36:41;983.75;;;886.55;;
27740;SDS011;15134;48.768;9.184;2023-07-16T05:39:09;985.63;;;888.63;;
27740;SDS011;15134;48.768;9.184;2023-07-16T05:41:38;988.65;;;891.38;;
27740;SDS011;15134;48.768;9.184;2023-07-16T05:44:04;988.93;;;891.37;;
27740;SDS011;15134;48.768;9.184;2023-07-16T05:46:30;986.72;;;889.35;;
27740;SDS011;15134;48.768;9.184;2023-07-16T05:48:56;988.65;;;891.25;;
27740;SDS011;15134;48.768;9.184;2023-07-16T05:51:22;994.83;;;897.25;;
27740;SDS011;15134;48.768;9.184;2023-07-16T05:53:47;990.97;;;893.50;;
27740;SDS011;15134;48.768;9.184;2023-07-16T05:56:13;996.15;;;898.35;;
27740;SDS011;15134;48.768;9.184;2023-07-16T05:58:39;991.17;;;893.57;;
27740;SDS011;15134;48.768;9.184;2023-07-16T06:01:06;995.63;;;897.78;;
27740;SDS011;15134;48.768;9.184;2023-07-16T06:03:32;991.15;;;893.58;;
27740;SDS011;15134;48.768;9.184;2023-07-16T06:05:57;991.03;;;893.53;;
27740;SDS011;15134;48.768;9.184;2023-07-16T06:08:23;992.03;;;894.45;;
27740;SDS011;15134;48.768;9.184;2023-07-16T06:10:50;991.90;;;894.45;;
27740;SDS011;15134;48.768;9.184;2023-07-16T06:13:16;993.33;;;895.83;;
27740;SDS011;15134;48.768;9.184;2023-07-16T06:15:42;1003.83;;;905.90;;
27740;SDS011;15134;48.768;9.184;2023-07-16T06:18:08;998.67;;;900.88;;
27740;SDS011;15134;48.768;9.184;2023-07-16T06:20:34;1002.25;;;904.13;;
27740;SDS011;15134;48.768;9.184;2023-07-16T06:23:00;1002.95;;;904.75;;
27740;SDS011;15134;48.768;9.184;2023-07-16T06:25:26;993.85;;;896.25;;
27740;SDS011;15134;48.768;9.184;2023-07-16T06:27:53;987.15;;;889.95;;
27740;SDS011;15134;48.768;9.184;2023-07-16T06:30:19;985.17;;;887.90;;
27740;SDS011;15134;48.768;9.184;2023-07-16T06:32:45;987.45;;;889.83;;
27740;SDS011;15134;48.768;9.184;2023-07-16T06:35:10;984.17;;;886.78;;
27740;SDS011;15134;48.768;9.184;2023-07-16T06:37:36;982.73;;;885.33;;
27740;SDS011;15134;48.768;9.184;2023-07-16T06:40:02;980.88;;;883.67;;
27740;SDS011;15134;48.768;9.184;2023-07-16T06:42:29;985.40;;;888.23;;
27740;SDS011;15134;48.768;9.184;2023-07-16T06:44:54;989.60;;;892.07;;
27740;SDS011;15134;48.768;9.184;2023-07-16T06:47:21;985.65;;;888.40;;
27740;SDS011;15134;48.768;9.184;2023-07-16T06:49:47;993.75;;;896.17;;
27740;SDS011;15134;48.768;9.184;2023-07-16T06:52:22;998.47;;;900.80;;
27740;SDS011;15134;48.768;9.184;2023-07-16T06:54:52;997.75;;;900.15;;
27740;SDS011;15134;48.768;9.184;2023-07-16T06:57:18;995.00;;;897.45;;
27740;SDS011;15134;48.768;9.184;2023-07-16T06:59:44;1001.60;;;903.67;;
27740;SDS011;15134;48.768;9.184;2023-07-16T07:02:10;1016.25;;;917.88;;
27740;SDS011;15134;48.768;9.184;2023-07-16T07:04:37;1045.32;;;945.97;;
27740;SDS011;15134;48.768;9.184;2023-07-16T07:07:03;1069.88;;;969.38;;
27740;SDS011;15134;48.768;9.184;2023-07-16T07:09:29;1093.37;;;992.07;;
27740;SDS011;15134;48.768;9.184;2023-07-16T07:11:55;1129.97;;;999.90;;
27740;SDS011;15134;48.768;9.184;2023-07-16T07:14:20;1166.17;;;999.90;;
27740;SDS011;15134;48.768;9.184;2023-07-16T07:16:46;1195.83;;;999.90;;
27740;SDS011;15134;48.768;9.184;2023-07-16T07:19:12;1218.20;;;999.90;;
27740;SDS011;15134;48.768;9.184;2023-07-16T07:21:38;1236.68;;;999.90;;
27740;SDS011;15134;48.768;9.184;2023-07-16T07:24:03;1256.63;;;999.90;;
27740;SDS011;15134;48.768;9.184;2023-07-16T07:26:30;1265.80;;;999.90;;
27740;SDS011;15134;48.768;9.184;2023-07-16T07:28:56;1277.75;;;999.90;;
27740;SDS011;15134;48.768;9.184;2023-07-16T07:31:22;1279.57;;;999.90;;
27740;SDS011;15134;48.768;9.184;2023-07-16T07:33:47;1290.47;;;999.90;;
27740;SDS011;15134;48.768;9.184;2023-07-16T07:36:13;1292.70;;;999.90;;
27740;SDS011;15134;48.768;9.184;2023-07-16T07:38:39;1297.90;;;999.90;;
27740;SDS011;15134;48.768;9.184;2023-07-16T07:41:05;1297.30;;;999.90;;
27740;SDS011;15134;48.768;9.184;2023-07-16T07:43:31;1287.75;;;999.90;;
27740;SDS011;15134;48.768;9.184;2023-07-16T07:45:57;1283.22;;;999.90;;
27740;SDS011;15134;48.768;9.184;2023-07-16T07:48:23;1281.85;;;999.90;;
27740;SDS011;15134;48.768;9.184;2023-07-16T07:50:49;1279.05;;;999.90;;
27740;SDS011;15134;48.768;9.184;2023-07-16T07:53:16;1272.32;;;999.90;;
27740;SDS011;15134;48.768;9.184;2023-07-16T07:55:44;1257.25;;;999.90;;
27740;SDS011;15134;48.768;9.184;2023-07-16T07:58:10;1243.43;;;999.90;;
27740;SDS011;15134;48.768;9.184;2023-07-16T08:00:36;1239.37;;;999.90;;
27740;SDS011;15134;48.768;9.184;2023-07-16T08:03:03;1248.63;;;999.90;;
27740;SDS011;15134;48.768;9.184;2023-07-16T08:05:29;1262.57;;;999.90;;
27740;SDS011;15134;48.768;9.184;2023-07-16T08:07:54;1276.20;;;999.90;;
27740;SDS011;15134;48.768;9.184;2023-07-16T08:10:21;1280.77;;;999.90;;
27740;SDS011;15134;48.768;9.184;2023-07-16T08:12:47;1288.55;;;999.90;;
27740;SDS011;15134;48.768;9.184;2023-07-16T08:15:13;1288.82;;;999.90;;
27740;SDS011;15134;48.768;9.184;2023-07-16T08:17:43;1280.53;;;999.90;;
27740;SDS011;15134;48.768;9.184;2023-07-16T08:20:10;1274.83;;;999.90;;
27740;SDS011;15134;48.768;9.184;2023-07-16T08:22:37;1269.43;;;999.90;;
27740;SDS011;15134;48.768;9.184;2023-07-16T08:25:03;1274.70;;;999.90;;
27740;SDS011;15134;48.768;9.184;2023-07-16T08:27:30;1282.63;;;999.90;;
27740;SDS011;15134;48.768;9.184;2023-07-16T08:29:56;1281.57;;;999.90;;
27740;SDS011;15134;48.768;9.184;2023-07-16T08:32:22;1275.70;;;999.90;;
27740;SDS011;15134;48.768;9.184;2023-07-16T08:34:48;1268.73;;;999.90;;
27740;SDS011;15134;48.768;9.184;2023-07-16T08:37:14;1253.77;;;999.90;;
27740;SDS011;15134;48.768;9.184;2023-07-16T08:39:40;1245.83;;;999.90;;
27740;SDS011;15134;48.768;9.184;2023-07-16T08:42:06;1234.78;;;999.90;;
27740;SDS011;15134;48.768;9.184;2023-07-16T08:44:35;1229.47;;;999.90;;
27740;SDS011;15134;48.768;9.184;2023-07-16T08:47:03;1252.35;;;999.90;;
27740;SDS011;15134;48.768;9.184;2023-07-16T08:49:30;1250.55;;;999.90;;
27740;SDS011;15134;48.768;9.184;2023-07-16T08:51:56;1250.35;;;999.90;;
27740;SDS011;15134;48.768;9.184;2023-07-16T08:54:22;1238.38;;;999.90;;
27740;SDS011;15134;48.768;9.184;2023-07-16T08:56:50;1228.20;;;999.90;;
27740;SDS011;15134;48.768;9.184;2023-07-16T08:59:17;1238.00;;;999.90;;
27740;SDS011;15134;48.768;9.184;2023-07-16T09:01:43;1240.60;;;999.90;;
27740;SDS011;15134;48.768;9.184;2023-07-16T09:04:09;1258.30;;;999.90;;
27740;SDS011;15134;48.768;9.184;2023-07-16T09:06:34;1275.00;;;999.90;;
27740;SDS011;15134;48.768;9.184;2023-07-16T09:09:00;1288.15;;;999.90;;
27740;SDS011;15134;48.768;9.184;2023-07-16T09:11:26;1297.90;;;999.90;;
27740;SDS011;15134;48.768;9.184;2023-07-16T09:13:52;1300.22;;;999.90;;
27740;SDS011;15134;48.768;9.184;2023-07-16T09:16:18;1305.97;;;999.90;;
27740;SDS011;15134;48.768;9.184;2023-07-16T09:18:45;1317.03;;;999.90;;
27740;SDS011;15134;48.768;9.184;2023-07-16T09:21:11;1319.28;;;999.90;;
27740;SDS011;15134;48.768;9.184;2023-07-16T09:23:37;1315.00;;;999.90;;
27740;SDS011;15134;48.768;9.184;2023-07-16T09:26:03;1315.13;;;999.90;;
27740;SDS011;15134;48.768;9.184;2023-07-16T09:28:33;1314.25;;;999.90;;
27740;SDS011;15134;48.768;9.184;2023-07-16T09:31:05;1311.78;;;999.90;;
27740;SDS011;15134;48.768;9.184;2023-07-16T09:33:32;1314.10;;;999.90;;
27740;SDS011;15134;48.768;9.184;2023-07-16T09:35:59;1312.30;;;999.90;;
27740;SDS011;15134;48.768;9.184;2023-07-16T09:38:26;1308.72;;;999.90;;
27740;SDS011;15134;48.768;9.184;2023-07-16T09:40:52;1306.32;;;999.90;;
27740;SDS011;15134;48.768;9.184;2023-07-16T09:43:19;1293.93;;;999.90;;
27740;SDS011;15134;48.768;9.184;2023-07-16T09:45:46;1296.00;;;999.90;;
27740;SDS011;15134;48.768;9.184;2023-07-16T09:48:12;1300.32;;;999.90;;
27740;SDS011;15134;48.768;9.184;2023-07-16T09:50:39;1301.67;;;999.90;;
27740;SDS011;15134;48.768;9.184;2023-07-16T09:53:11;1307.50;;;999.90;;
27740;SDS011;15134;48.768;9.184;2023-07-16T09:55:37;1307.57;;;999.90;;
27740;SDS011;15134;48.768;9.184;2023-07-16T09:58:06;1310.60;;;999.90;;
27740;SDS011;15134;48.768;9.184;2023-07-16T10:00:35;1301.82;;;999.90;;
27740;SDS011;15134;48.768;9.184;2023-07-16T10:03:02;1298.80;;;999.90;;
27740;SDS011;15134;48.768;9.184;2023-07-16T10:05:28;1301.40;;;999.90;;
27740;SDS011;15134;48.768;9.184;2023-07-16T10:07:58;1301.13;;;999.90;;
27740;SDS011;15134;48.768;9.184;2023-07-16T10:10:41;1297.23;;;999.90;;
27740;SDS011;15134;48.768;9.184;2023-07-16T10:13:28;1285.70;;;999.90;;
27740;SDS011;15134;48.768;9.184;2023-07-16T10:15:54;1273.73;;;999.90;;
27740;SDS011;15134;48.768;9.184;2023-07-16T10:18:25;1265.27;;;999.90;;
27740;SDS011;15134;48.768;9.184;2023-07-16T10:21:05;1253.75;;;999.90;;
27740;SDS011;15134;48.768;9.184;2023-07-16T10:23:39;1237.63;;;999.90;;
27740;SDS011;15134;48.768;9.184;2023-07-16T10:26:06;1225.22;;;999.90;;
27740;SDS011;15134;48.768;9.184;2023-07-16T10:28:36;1221.53;;;999.90;;
27740;SDS011;15134;48.768;9.184;2023-07-16T10:31:02;1209.32;;;999.90;;
27740;SDS011;15134;48.768;9.184;2023-07-16T10:33:28;1195.30;;;999.90;;
27740;SDS011;15134;48.768;9.184;2023-07-16T10:35:56;1186.78;;;999.90;;
27740;SDS011;15134;48.768;9.184;2023-07-16T10:38:24;1185.43;;;999.90;;
27740;SDS011;15134;48.768;9.184;2023-07-16T10:40:50;1173.38;;;999.90;;
27740;SDS011;15134;48.768;9.184;2023-07-16T10:43:16;1165.60;;;999.90;;
27740;SDS011;15134;48.768;9.184;2023-07-16T10:45:42;1159.60;;;999.90;;
27740;SDS011;15134;48.768;9.184;2023-07-16T10:48:07;1155.68;;;999.90;;
27740;SDS011;15134;48.768;9.184;2023-07-16T10:50:33;1148.68;;;999.90;;
27740;SDS011;15134;48.768;9.184;2023-07-16T10:53:00;1150.13;;;999.90;;
27740;SDS011;15134;48.768;9.184;2023-07-16T10:55:26;1143.15;;;999.90;;
27740;SDS011;15134;48.768;9.184;2023-07-16T10:57:53;1138.07;;;999.90;;
27740;SDS011;15134;48.768;9.184;2023-07-16T11:00:21;1135.10;;;999.90;;
27740;SDS011;15134;48.768;9.184;2023-07-16T11:02:48;1128.17;;;999.90;;
27740;SDS011;15134;48.768;9.184;2023-07-16T11:05:16;1119.70;;;999.90;;
27740;SDS011;15134;48.768;9.184;2023-07-16T11:07:47;1117.68;;;999.90;;
27740;SDS011;15134;48.768;9.184;2023-07-16T11:10:16;1118.80;;;999.90;;
27740;SDS011;15134;48.768;9.184;2023-07-16T11:12:42;1113.60;;;999.90;;
27740;SDS011;15134;48.768;9.184;2023-07-16T11:15:08;1117.72;;;999.90;;
27740;SDS011;15134;48.768;9.184;2023-07-16T11:17:36;1117.55;;;999.90;;
27740;SDS011;15134;48.768;9.184;2023-07-16T11:20:06;1111.13;;;999.90;;
27740;SDS011;15134;48.768;9.184;2023-07-16T11:22:36;1116.40;;;999.90;;
27740;SDS011;15134;48.768;9.184;2023-07-16T11:25:04;1114.33;;;999.90;;
27740;SDS011;15134;48.768;9.184;2023-07-16T11:27:36;1111.70;;;999.90;;
27740;SDS011;15134;48.768;9.184;2023-07-16T11:30:05;1111.38;;;999.90;;
27740;SDS011;15134;48.768;9.184;2023-07-16T11:32:35;1112.03;;;999.90;;
27740;SDS011;15134;48.768;9.184;2023-07-16T11:35:08;1113.13;;;999.90;;
27740;SDS011;15134;48.768;9.184;2023-07-16T11:37:36;1111.20;;;999.90;;
27740;SDS011;15134;48.768;9.184;2023-07-16T11:42:37;1110.30;;;999.90;;
27740;SDS011;15134;48.768;9.184;2023-07-16T11:45:04;1107.28;;;999.90;;
27740;SDS011;15134;48.768;9.184;2023-07-16T11:47:41;1107.90;;;999.90;;
27740;SDS011;15134;48.768;9.184;2023-07-16T11:50:07;1105.50;;;999.90;;
27740;SDS011;15134;48.768;9.184;2023-07-16T11:52:33;1112.78;;;999.90;;
27740;SDS011;15134;48.768;9.184;2023-07-16T11:54:59;1121.50;;;999.90;;
27740;SDS011;15134;48.768;9.184;2023-07-16T11:57:25;1118.43;;;999.90;;
27740;SDS011;15134;48.768;9.184;2023-07-16T11:59:51;1119.03;;;999.90;;
27740;SDS011;15134;48.768;9.184;2023-07-16T12:02:17;1116.00;;;999.90;;
27740;SDS011;15134;48.768;9.184;2023-07-16T12:04:43;1113.67;;;999.90;;
27740;SDS011;15134;48.768;9.184;2023-07-16T12:07:09;1111.05;;;999.90;;
27740;SDS011;15134;48.768;9.184;2023-07-16T12:09:35;1112.20;;;999.90;;
27740;SDS011;15134;48.768;9.184;2023-07-16T12:12:01;1107.07;;;999.90;;
27740;SDS011;15134;48.768;9.184;2023-07-16T12:14:27;1103.80;;;999.90;;
27740;SDS011;15134;48.768;9.184;2023-07-16T12:16:53;1104.28;;;999.90;;
27740;SDS011;15134;48.768;9.184;2023-07-16T12:19:19;1102.88;;;999.90;;
27740;SDS011;15134;48.768;9.184;2023-07-16T12:21:45;1092.37;;;992.37;;
27740;SDS011;15134;48.768;9.184;2023-07-16T12:24:11;1093.90;;;993.92;;
27740;SDS011;15134;48.768;9.184;2023-07-16T12:26:37;1087.30;;;987.38;;
27740;SDS011;15134;48.768;9.184;2023-07-16T12:29:03;1089.60;;;989.45;;
27740;SDS011;15134;48.768;9.184;2023-07-16T12:31:32;1093.23;;;992.93;;
27740;SDS011;15134;48.768;9.184;2023-07-16T12:33:58;1093.60;;;993.67;;
27740;SDS011;15134;48.768;9.184;2023-07-16T12:36:27;1091.80;;;991.92;;
27740;SDS011;15134;48.768;9.184;2023-07-16T12:38:53;1093.43;;;993.63;;
27740;SDS011;15134;48.768;9.184;2023-07-16T12:41:19;1090.20;;;990.22;;
27740;SDS011;15134;48.768;9.184;2023-07-16T12:43:45;1086.18;;;986.75;;
27740;SDS011;15134;48.768;9.184;2023-07-16T12:46:11;1091.47;;;991.70;;
27740;SDS011;15134;48.768;9.184;2023-07-16T12:48:37;1086.63;;;987.03;;
27740;SDS011;15134;48.768;9.184;2023-07-16T12:51:03;1089.03;;;989.22;;
27740;SDS011;15134;48.768;9.184;2023-07-16T12:53:29;1084.22;;;984.83;;
27740;SDS011;15134;48.768;9.184;2023-07-16T12:55:54;1090.83;;;991.03;;
27740;SDS011;15134;48.768;9.184;2023-07-16T12:58:20;1086.38;;;987.22;;
27740;SDS011;15134;48.768;9.184;2023-07-16T13:00:47;1094.32;;;994.33;;
27740;SDS011;15134;48.768;9.184;2023-07-16T13:03:12;1094.43;;;994.50;;
27740;SDS011;15134;48.768;9.184;2023-07-16T13:05:41;1089.43;;;989.90;;
27740;SDS011;15134;48.768;9.184;2023-07-16T13:08:08;1093.15;;;993.30;;
27740;SDS011;15134;48.768;9.184;2023-07-16T13:10:34;1093.17;;;993.37;;
27740;SDS011;15134;48.768;9.184;2023-07-16T13:13:00;1093.05;;;993.47;;
27740;SDS011;15134;48.768;9.184;2023-07-16T13:15:28;1093.93;;;994.33;;
27740;SDS011;15134;48.768;9.184;2023-07-16T13:17:54;1091.40;;;992.00;;
27740;SDS011;15134;48.768;9.184;2023-07-16T13:20:20;1090.18;;;990.47;;
27740;SDS011;15134;48.768;9.184;2023-07-16T13:22:47;1095.88;;;995.95;;
27740;SDS011;15134;48.768;9.184;2023-07-16T13:25:13;1089.75;;;990.00;;
27740;SDS011;15134;48.768;9.184;2023-07-16T13:27:39;1086.88;;;986.90;;
27740;SDS011;15134;48.768;9.184;2023-07-16T13:30:05;1089.57;;;989.93;;
27740;SDS011;15134;48.768;9.184;2023-07-16T13:32:31;1086.65;;;987.08;;
27740;SDS011;15134;48.768;9.184;2023-07-16T13:34:57;1088.03;;;988.47;;
27740;SDS011;15134;48.768;9.184;2023-07-16T13:37:23;1087.43;;;987.70;;
27740;SDS011;15134;48.768;9.184;2023-07-16T13:39:49;1092.43;;;992.63;;
27740;SDS011;15134;48.768;9.184;2023-07-16T13:42:15;1094.97;;;995.08;;
27740;SDS011;15134;48.768;9.184;2023-07-16T13:44:40;1092.37;;;992.63;;
27740;SDS011;15134;48.768;9.184;2023-07-16T13:47:06;1086.13;;;986.83;;
27740;SDS011;15134;48.768;9.184;2023-07-16T13:49:32;1085.93;;;986.80;;
27740;SDS011;15134;48.768;9.184;2023-07-16T13:51:58;1085.67;;;986.37;;
27740;SDS011;15134;48.768;9.184;2023-07-16T13:54:23;1087.20;;;987.78;;
27740;SDS011;15134;48.768;9.184;2023-07-16T13:56:49;1088.73;;;988.93;;